Time;durP1;ratioP1;P1;durP2;ratioP2;P2;SDS_P1;SDS_P2;PMS_P1;PMS_P2;Temp;Humidity;BMP_temperature;BMP_pressure;BME280_temperature;BME280_humidity;BME280_pressure;Samples;Min_cycle;Max_cycle;Signal;HPM_P1;HPM_P2
2022/03/01 00:00:37;;;;;;;;;31.67;29.33;;;;;5.90;49.57;100077.69;5034823;28;45465;-74
2022/03/01 00:03:02;;;;;;;;;31.00;29.00;;;;;5.86;49.79;100070.72;5053790;28;45532;-74
2022/03/01 00:05:28;;;;;;;;;24.33;20.67;;;;;5.84;49.64;100079.44;5052965;28;45584;-74
2022/03/01 00:07:53;;;;;;;;;24.33;20.33;;;;;5.82;49.88;100082.06;5054971;28;45375;-74
2022/03/01 00:10:18;;;;;;;;;35.33;32.67;;;;;5.82;49.95;100078.59;5048110;28;45423;-74
2022/03/01 00:12:44;;;;;;;;;32.67;27.67;;;;;5.79;49.92;100082.09;5055159;28;45581;-74
2022/03/01 00:15:10;;;;;;;;;34.67;29.33;;;;;5.79;49.74;100084.69;5053642;28;45440;-74
2022/03/01 00:17:35;;;;;;;;;28.67;25.33;;;;;5.77;50.49;100082.97;5054646;28;45372;-74
2022/03/01 00:20:01;;;;;;;;;40.67;32.33;;;;;5.76;50.25;100083.84;5052086;28;45397;-73
2022/03/01 00:22:27;;;;;;;;;33.00;26.33;;;;;5.74;50.50;100090.81;5054949;28;45484;-74
2022/03/01 00:24:52;;;;;;;;;26.00;24.67;;;;;5.71;50.22;100089.09;5031105;28;47891;-74
2022/03/01 00:27:18;;;;;;;;;26.00;23.33;;;;;5.70;50.15;100094.34;5054979;28;45467;-74
2022/03/01 00:29:43;;;;;;;;;30.67;29.33;;;;;5.67;50.38;100096.97;5046595;28;45598;-74
2022/03/01 00:32:10;;;;;;;;;32.67;28.33;;;;;5.65;50.45;100096.97;5057820;28;45457;-74
2022/03/01 00:34:36;;;;;;;;;30.00;27.00;;;;;5.64;50.35;100102.22;5049601;28;45446;-74
2022/03/01 00:37:02;;;;;;;;;25.67;25.00;;;;;5.63;51.29;100108.31;5054508;28;45442;-73
2022/03/01 00:39:27;;;;;;;;;26.33;25.67;;;;;5.58;51.96;100106.59;5054606;28;45464;-74
2022/03/01 00:41:52;;;;;;;;;26.00;24.00;;;;;5.56;51.65;100107.47;5054452;28;45519;-74
2022/03/01 00:44:18;;;;;;;;;32.67;28.67;;;;;5.52;51.61;100100.53;5052164;28;46159;-73
2022/03/01 00:46:43;;;;;;;;;29.67;23.67;;;;;5.48;51.71;100101.41;5050974;28;45373;-74
2022/03/01 00:49:09;;;;;;;;;28.00;24.33;;;;;5.45;51.43;100098.81;5049579;28;45631;-74
2022/03/01 00:51:35;;;;;;;;;23.33;22.67;;;;;5.42;51.65;100099.69;5054365;28;45556;-74
2022/03/01 00:54:00;;;;;;;;;38.67;28.00;;;;;5.41;51.85;100097.94;5053463;28;45585;-74
2022/03/01 00:56:26;;;;;;;;;23.00;21.67;;;;;5.38;51.82;100108.41;5053836;28;45502;-74
2022/03/01 00:58:51;;;;;;;;;30.67;27.33;;;;;5.36;52.11;100107.56;5052483;28;45609;-74
2022/03/01 01:01:17;;;;;;;;;30.33;28.67;;;;;5.34;52.13;100109.31;5045886;28;45420;-74
2022/03/01 01:03:42;;;;;;;;;29.67;26.00;;;;;5.33;52.06;100107.56;5052749;28;45546;-74
2022/03/01 01:06:08;;;;;;;;;32.33;24.00;;;;;5.31;52.39;100106.69;5053443;28;45349;-74
2022/03/01 01:08:33;;;;;;;;;25.00;22.67;;;;;5.29;52.33;100112.81;5051997;28;45723;-74
2022/03/01 01:10:59;;;;;;;;;34.33;28.33;;;;;5.26;52.53;100114.56;5044596;28;45550;-74
2022/03/01 01:13:24;;;;;;;;;33.00;23.33;;;;;5.22;52.49;100112.81;5035342;28;46912;-74
2022/03/01 01:15:51;;;;;;;;;31.33;26.67;;;;;5.22;51.98;100122.41;5054093;28;45490;-74
2022/03/01 01:18:17;;;;;;;;;26.33;23.00;;;;;5.22;52.24;100119.78;5050589;28;45398;-74
2022/03/01 01:20:42;;;;;;;;;30.67;26.67;;;;;5.20;52.35;100122.41;5029412;28;45484;-74
2022/03/01 01:23:08;;;;;;;;;30.33;28.00;;;;;5.20;52.26;100124.13;5053353;28;45370;-74
2022/03/01 01:25:34;;;;;;;;;29.33;29.00;;;;;5.19;52.35;100120.69;5035138;28;45495;-74
2022/03/01 01:28:01;;;;;;;;;31.33;31.00;;;;;5.17;52.51;100127.66;5053052;28;45372;-74
2022/03/01 01:30:30;;;;;;;;;39.67;31.00;;;;;5.16;52.12;100138.13;5028869;28;45747;-74
2022/03/01 01:32:56;;;;;;;;;35.33;31.67;;;;;5.14;52.47;100137.25;5053001;28;46161;-74
2022/03/01 01:35:23;;;;;;;;;31.33;26.00;;;;;5.13;52.55;100132.88;5050549;28;45581;-74
2022/03/01 01:37:50;;;;;;;;;27.00;25.33;;;;;5.12;52.37;100139.84;5035103;28;45453;-74
2022/03/01 01:40:21;;;;;;;;;26.33;24.00;;;;;5.11;52.41;100137.25;5044494;28;45412;-74
2022/03/01 01:42:46;;;;;;;;;26.33;25.00;;;;;5.10;52.22;100136.38;5051918;28;46547;-74
2022/03/01 01:45:12;;;;;;;;;30.33;27.00;;;;;5.08;52.51;100145.09;5047863;28;45754;-74
2022/03/01 01:47:38;;;;;;;;;31.33;28.33;;;;;5.04;52.51;100146.81;5052307;28;45533;-73
2022/03/01 01:50:06;;;;;;;;;26.00;23.00;;;;;4.99;52.65;100142.50;5049262;28;45464;-74
2022/03/01 01:52:31;;;;;;;;;26.00;23.67;;;;;4.96;52.92;100148.59;5053356;28;46186;-74
2022/03/01 01:54:57;;;;;;;;;25.00;23.67;;;;;4.95;52.76;100143.38;5050226;28;45473;-74
2022/03/01 01:57:24;;;;;;;;;23.67;22.00;;;;;4.91;53.57;100145.97;5035313;28;45481;-74
2022/03/01 01:59:52;;;;;;;;;29.33;23.00;;;;;4.89;53.88;100149.47;5050785;28;45491;-74
2022/03/01 02:02:19;;;;;;;;;26.00;21.33;;;;;4.86;53.58;100152.94;5053167;28;46257;-74
2022/03/01 02:04:45;;;;;;;;;30.67;26.00;;;;;4.85;53.73;100152.97;5052933;28;45620;-74
2022/03/01 02:07:12;;;;;;;;;25.33;23.33;;;;;4.82;53.70;100152.97;5053690;28;45360;-74
2022/03/01 02:09:38;;;;;;;;;34.67;25.33;;;;;4.77;53.81;100163.41;5050070;28;45446;-74
2022/03/01 02:12:05;;;;;;;;;34.00;27.33;;;;;4.73;53.93;100166.88;5055684;28;46141;-74
2022/03/01 02:14:32;;;;;;;;;30.33;28.00;;;;;4.73;54.22;100163.41;5051170;28;45812;-74
2022/03/01 02:16:59;;;;;;;;;33.33;30.00;;;;;4.71;54.11;100157.28;5055739;28;45463;-74
2022/03/01 02:19:24;;;;;;;;;34.33;31.67;;;;;4.71;54.81;100160.78;5047876;28;45418;-74
2022/03/01 02:21:54;;;;;;;;;29.00;27.33;;;;;4.72;54.67;100161.66;5056358;28;45812;-74
2022/03/01 02:24:20;;;;;;;;;33.67;28.67;;;;;4.71;54.54;100157.28;5032103;28;45445;-74
2022/03/01 02:26:45;;;;;;;;;27.67;26.33;;;;;4.71;54.16;100146.84;5055932;28;45577;-74
2022/03/01 02:29:11;;;;;;;;;28.33;24.67;;;;;4.70;54.49;100153.81;5051677;28;45468;-74
2022/03/01 02:31:37;;;;;;;;;35.33;28.00;;;;;4.68;54.30;100154.72;5055962;28;46285;-74
2022/03/01 02:34:04;;;;;;;;;37.00;31.67;;;;;4.65;54.68;100147.75;5047013;28;45499;-74
2022/03/01 02:36:29;;;;;;;;;34.33;33.00;;;;;4.63;54.57;100152.09;5055984;28;45443;-74
2022/03/01 02:38:55;;;;;;;;;32.33;30.67;;;;;4.62;54.79;100155.56;5056406;28;45456;-74
2022/03/01 02:41:20;;;;;;;;;38.33;34.67;;;;;4.61;54.85;100156.44;5055962;28;45689;-74
2022/03/01 02:43:45;;;;;;;;;32.33;30.67;;;;;4.60;55.21;100154.69;5034540;28;45427;-74
2022/03/01 02:46:11;;;;;;;;;28.00;26.00;;;;;4.59;55.06;100163.41;5055219;28;45883;-74
2022/03/01 02:48:36;;;;;;;;;31.67;31.00;;;;;4.56;55.12;100151.19;5050443;28;45384;-73
2022/03/01 02:51:02;;;;;;;;;27.33;22.67;;;;;4.56;55.29;100147.72;5054779;28;46138;-74
2022/03/01 02:53:29;;;;;;;;;34.67;29.67;;;;;4.55;55.05;100149.47;5056166;28;45483;-74
2022/03/01 02:55:55;;;;;;;;;32.33;31.33;;;;;4.56;54.98;100151.19;5056010;28;45477;-73
2022/03/01 02:58:20;;;;;;;;;39.00;30.33;;;;;4.56;55.39;100153.81;5052730;28;45666;-73
2022/03/01 03:00:45;;;;;;;;;31.00;28.33;;;;;4.56;55.05;100151.19;5036416;28;48100;-74
2022/03/01 03:03:15;;;;;;;;;35.67;28.33;;;;;4.55;55.22;100152.06;5054675;28;45631;-74
2022/03/01 03:05:40;;;;;;;;;29.67;29.67;;;;;4.53;55.04;100151.19;5055257;28;45442;-74
2022/03/01 03:08:07;;;;;;;;;34.33;27.33;;;;;4.52;55.25;100151.22;5054714;28;45455;-73
2022/03/01 03:10:33;;;;;;;;;31.33;30.33;;;;;4.52;54.78;100157.28;5050698;28;45664;-74
2022/03/01 03:13:00;;;;;;;;;29.67;23.33;;;;;4.52;54.99;100156.44;5055326;28;45382;-74
2022/03/01 03:15:25;;;;;;;;;25.33;25.33;;;;;4.49;54.96;100151.22;5055641;28;45480;-74
2022/03/01 03:17:51;;;;;;;;;25.33;22.00;;;;;4.47;54.97;100155.56;5055065;28;45532;-74
2022/03/01 03:20:16;;;;;;;;;33.00;29.33;;;;;4.46;54.89;100154.69;5046997;28;45692;-74
2022/03/01 03:22:41;;;;;;;;;32.67;23.67;;;;;4.46;55.26;100159.91;5019316;28;45572;-74
2022/03/01 03:25:07;;;;;;;;;25.33;23.33;;;;;4.46;55.01;100156.44;5030715;28;45356;-74
2022/03/01 03:27:33;;;;;;;;;25.67;22.33;;;;;4.45;54.73;100162.50;5017146;28;45426;-73
2022/03/01 03:29:58;;;;;;;;;25.00;24.00;;;;;4.43;54.97;100167.72;5024128;28;45582;-74
2022/03/01 03:32:24;;;;;;;;;25.33;21.33;;;;;4.42;54.92;100163.38;5034999;28;45588;-74
2022/03/01 03:34:49;;;;;;;;;23.00;21.33;;;;;4.41;54.88;100166.84;5035362;28;45442;-74
2022/03/01 03:37:14;;;;;;;;;27.67;26.00;;;;;4.40;54.91;100170.34;5035395;28;45493;-74
2022/03/01 03:39:40;;;;;;;;;31.00;28.67;;;;;4.40;55.15;100169.47;5035178;28;45510;-74
2022/03/01 03:42:05;;;;;;;;;29.33;25.33;;;;;4.39;55.17;100172.94;5035048;28;45564;-74
2022/03/01 03:44:31;;;;;;;;;19.00;15.33;;;;;4.37;55.06;100167.72;5031491;28;45398;-73
2022/03/01 03:46:56;;;;;;;;;48.00;36.67;;;;;4.37;54.98;100172.94;5035207;28;45464;-74
2022/03/01 03:49:23;;;;;;;;;23.67;23.67;;;;;4.36;55.13;100171.19;5026776;28;46487;-74
2022/03/01 03:51:48;;;;;;;;;26.00;22.00;;;;;4.36;55.59;100172.94;5035141;28;45438;-74
2022/03/01 03:54:14;;;;;;;;;31.33;22.00;;;;;4.33;55.04;100171.22;5034832;28;45592;-74
2022/03/01 03:56:40;;;;;;;;;25.00;22.00;;;;;4.33;54.93;100170.34;5035051;28;45418;-74
2022/03/01 03:59:07;;;;;;;;;28.33;25.33;;;;;4.31;54.91;100169.47;5034336;28;46306;-74
2022/03/01 04:01:33;;;;;;;;;27.67;22.67;;;;;4.30;55.47;100178.16;5035134;28;45552;-74
2022/03/01 04:04:00;;;;;;;;;28.00;23.00;;;;;4.28;55.25;100175.53;5034361;28;45525;-74
2022/03/01 04:06:26;;;;;;;;;27.67;26.00;;;;;4.26;55.23;100177.28;5034937;28;45406;-73
2022/03/01 04:08:51;;;;;;;;;27.33;25.33;;;;;4.24;55.52;100173.78;5015745;28;46863;-74
2022/03/01 04:11:16;;;;;;;;;31.33;26.67;;;;;4.23;55.20;100166.81;5034653;28;45461;-74
2022/03/01 04:13:42;;;;;;;;;30.33;25.00;;;;;4.22;55.65;100175.50;5032931;28;45365;-74
2022/03/01 04:16:07;;;;;;;;;28.00;21.67;;;;;4.20;55.24;100178.13;5034437;28;45554;-73
2022/03/01 04:18:33;;;;;;;;;35.67;27.33;;;;;4.18;55.19;100179.00;5029701;28;46277;-74
2022/03/01 04:20:58;;;;;;;;;26.33;24.00;;;;;4.15;55.65;100173.78;5026273;28;45433;-74
2022/03/01 04:23:24;;;;;;;;;22.00;20.33;;;;;4.13;55.71;100179.00;5032778;28;45397;-74
2022/03/01 04:25:49;;;;;;;;;27.00;22.00;;;;;4.13;55.44;100183.34;5013297;28;45520;-74
2022/03/01 04:28:14;;;;;;;;;28.00;23.00;;;;;4.12;55.76;100187.69;5034172;28;45576;-74
2022/03/01 04:30:40;;;;;;;;;26.00;25.00;;;;;4.10;56.18;100189.41;5037102;28;45495;-74
2022/03/01 04:33:06;;;;;;;;;35.33;32.00;;;;;4.10;56.43;100191.16;5033543;28;45502;-74
2022/03/01 04:35:31;;;;;;;;;33.67;28.33;;;;;4.06;56.65;100195.47;5025665;28;45434;-74
2022/03/01 04:37:56;;;;;;;;;15.33;11.33;;;;;4.05;57.11;100195.47;5015978;28;45492;-74
2022/03/01 04:40:22;;;;;;;;;28.67;26.00;;;;;4.04;56.95;100196.34;5033975;28;45444;-74
2022/03/01 04:42:49;;;;;;;;;24.67;17.00;;;;;4.04;57.20;100198.94;5016484;28;45447;-74
2022/03/01 04:45:16;;;;;;;;;29.33;25.00;;;;;4.04;57.29;100201.56;5012525;28;45635;-74
2022/03/01 04:47:42;;;;;;;;;36.33;27.67;;;;;4.03;57.41;100192.84;5014421;28;47016;-74
2022/03/01 04:50:07;;;;;;;;;26.33;25.00;;;;;4.02;57.33;100190.28;5031087;28;45370;-74
2022/03/01 04:52:33;;;;;;;;;31.00;29.33;;;;;3.98;57.47;100186.78;5034101;28;45432;-74
2022/03/01 04:54:58;;;;;;;;;38.67;32.00;;;;;3.98;57.71;100191.13;5009751;28;45537;-74
2022/03/01 04:57:24;;;;;;;;;31.67;27.33;;;;;3.96;57.67;100193.72;5031668;28;46328;-73
2022/03/01 04:59:49;;;;;;;;;34.00;29.33;;;;;3.95;57.49;100193.72;5032156;28;45437;-74
2022/03/01 05:02:15;;;;;;;;;31.33;29.33;;;;;3.93;57.44;100198.91;5033678;28;45449;-73
2022/03/01 05:04:40;;;;;;;;;30.33;28.67;;;;;3.92;57.62;100198.91;5033734;28;45439;-74
2022/03/01 05:07:05;;;;;;;;;26.33;23.00;;;;;3.92;57.75;100209.34;5033619;28;45481;-74
2022/03/01 05:09:31;;;;;;;;;28.33;28.00;;;;;3.90;57.38;100206.72;5032820;28;45415;-73
2022/03/01 05:11:56;;;;;;;;;30.33;27.33;;;;;3.91;57.45;100207.59;5033900;28;45661;-74
2022/03/01 05:14:22;;;;;;;;;28.67;24.00;;;;;3.90;57.64;100209.34;5012242;28;45634;-73
2022/03/01 05:16:48;;;;;;;;;33.67;31.33;;;;;3.88;57.57;100198.00;5013198;28;47067;-74
2022/03/01 05:19:14;;;;;;;;;34.33;27.00;;;;;3.86;57.38;100191.91;5010077;28;45489;-73
2022/03/01 05:21:40;;;;;;;;;25.33;24.33;;;;;3.84;57.50;100210.19;5030418;28;45505;-74
2022/03/01 05:24:06;;;;;;;;;27.00;25.67;;;;;3.81;57.83;100202.34;5026631;28;45628;-74
2022/03/01 05:26:31;;;;;;;;;29.33;24.33;;;;;3.82;57.62;100211.94;5031120;28;45572;-73
2022/03/01 05:28:57;;;;;;;;;29.00;27.00;;;;;3.80;57.71;100216.25;5026135;28;45433;-73
2022/03/01 05:31:23;;;;;;;;;33.33;29.33;;;;;3.78;57.79;100214.50;5031067;28;45457;-74
2022/03/01 05:33:49;;;;;;;;;39.33;35.33;;;;;3.77;57.73;100229.28;5029910;28;45395;-74
2022/03/01 05:36:15;;;;;;;;;36.33;33.00;;;;;3.75;57.80;100223.19;5030664;28;46028;-74
2022/03/01 05:38:41;;;;;;;;;40.00;33.67;;;;;3.74;58.02;100221.44;5030043;28;45507;-74
2022/03/01 05:41:08;;;;;;;;;35.67;33.00;;;;;3.71;58.01;100225.75;5032029;28;45678;-74
2022/03/01 05:43:34;;;;;;;;;38.67;36.00;;;;;3.70;57.88;100221.41;5032175;28;45441;-74
2022/03/01 05:45:59;;;;;;;;;45.67;36.67;;;;;3.67;58.56;100230.09;5015921;28;46708;-74
2022/03/01 05:48:26;;;;;;;;;36.67;35.00;;;;;3.64;58.49;100230.09;5018344;28;45374;-74
2022/03/01 05:50:52;;;;;;;;;39.67;33.00;;;;;3.62;58.99;100225.72;5036518;28;45382;-74
2022/03/01 05:53:17;;;;;;;;;37.67;33.33;;;;;3.59;59.05;100234.38;5016799;28;45399;-74
2022/03/01 05:55:43;;;;;;;;;34.33;32.67;;;;;3.56;59.36;100229.16;5036232;28;45404;-73
2022/03/01 05:58:08;;;;;;;;;33.33;30.33;;;;;3.53;59.32;100228.25;5036308;28;45374;-74
2022/03/01 06:00:34;;;;;;;;;38.00;31.00;;;;;3.51;59.30;100236.09;5036267;28;45530;-74
2022/03/01 06:02:59;;;;;;;;;38.67;35.33;;;;;3.50;59.38;100239.56;5036100;28;45368;-73
2022/03/01 06:05:27;;;;;;;;;36.00;31.67;;;;;3.48;59.32;100229.13;5016993;28;48002;-73
2022/03/01 06:07:52;;;;;;;;;40.33;37.33;;;;;3.48;59.21;100231.72;5035352;28;45454;-74
2022/03/01 06:10:19;;;;;;;;;37.67;33.00;;;;;3.48;59.41;100241.28;5031006;28;45420;-74
2022/03/01 06:12:44;;;;;;;;;43.67;37.00;;;;;3.46;59.31;100241.28;5017495;28;45555;-74
2022/03/01 06:15:10;;;;;;;;;32.33;28.00;;;;;3.47;59.38;100244.75;5028317;28;45800;-74
2022/03/01 06:17:36;;;;;;;;;39.67;36.00;;;;;3.45;59.06;100242.13;5035461;28;45481;-74
2022/03/01 06:20:02;;;;;;;;;39.00;33.00;;;;;3.45;59.29;100238.66;5034308;28;45668;-74
2022/03/01 06:22:29;;;;;;;;;37.33;33.67;;;;;3.44;59.41;100237.78;5034538;28;45642;-74
2022/03/01 06:24:55;;;;;;;;;39.33;32.67;;;;;3.43;59.07;100236.03;5012619;28;46739;-73
2022/03/01 06:27:23;;;;;;;;;41.67;32.00;;;;;3.42;59.79;100236.91;5035385;28;45445;-75
2022/03/01 06:29:48;;;;;;;;;38.67;33.67;;;;;3.44;59.44;100239.50;5027643;28;45488;-75
2022/03/01 06:32:14;;;;;;;;;31.67;30.33;;;;;3.47;59.39;100250.84;5016004;28;45588;-69
2022/03/01 06:34:39;;;;;;;;;28.33;27.33;;;;;3.53;59.40;100239.56;5009629;28;46717;-69
2022/03/01 06:37:06;;;;;;;;;34.00;31.67;;;;;3.60;59.23;100250.91;5016082;28;45465;-70
2022/03/01 06:39:32;;;;;;;;;36.67;30.33;;;;;3.67;59.17;100253.56;5009447;28;45406;-70
2022/03/01 06:41:59;;;;;;;;;36.67;29.33;;;;;3.73;59.37;100255.31;5007955;28;45488;-70
2022/03/01 06:44:25;;;;;;;;;39.33;33.00;;;;;3.75;59.11;100259.69;5029853;28;45536;-70
2022/03/01 06:46:50;;;;;;;;;27.00;25.33;;;;;3.77;58.89;100250.13;5035363;28;45461;-70
2022/03/01 06:49:17;;;;;;;;;28.33;27.33;;;;;3.79;58.93;100252.75;5035349;28;45489;-67
2022/03/01 06:51:42;;;;;;;;;38.00;35.33;;;;;3.76;58.84;100256.22;5035485;28;45350;-70
2022/03/01 06:54:07;;;;;;;;;29.33;28.00;;;;;3.76;59.02;100263.16;5034740;28;45656;-69
2022/03/01 06:56:33;;;;;;;;;40.33;33.33;;;;;3.78;59.08;100282.31;5035291;28;45472;-70
2022/03/01 06:58:58;;;;;;;;;39.33;38.33;;;;;3.79;58.90;100286.66;5011696;28;45375;-69
2022/03/01 07:01:24;;;;;;;;;38.00;32.33;;;;;3.80;58.99;100288.41;5008706;28;45389;-69
2022/03/01 07:03:51;;;;;;;;;36.33;32.33;;;;;3.80;59.14;100277.97;5035004;28;46471;-70
2022/03/01 07:06:16;;;;;;;;;33.33;30.33;;;;;3.82;58.94;100286.69;5014425;28;45383;-70
2022/03/01 07:08:42;;;;;;;;;37.67;32.33;;;;;3.82;58.83;100284.97;5015948;28;45504;-70
2022/03/01 07:11:07;;;;;;;;;39.67;31.33;;;;;3.84;58.84;100288.44;5014363;28;45519;-70
2022/03/01 07:13:33;;;;;;;;;33.00;28.00;;;;;3.86;59.26;100286.69;5029395;28;45911;-70
2022/03/01 07:15:58;;;;;;;;;42.67;37.67;;;;;3.90;58.92;100290.19;5008364;28;45323;-71
2022/03/01 07:18:24;;;;;;;;;42.67;34.67;;;;;3.94;59.00;100299.78;5032547;28;45312;-71
2022/03/01 07:20:50;;;;;;;;;41.67;37.00;;;;;4.00;58.95;100309.41;5017313;28;45509;-71
2022/03/01 07:23:16;;;;;;;;;33.67;32.67;;;;;4.02;58.74;100303.28;5033525;28;46726;-71
2022/03/01 07:25:43;;;;;;;;;33.00;28.00;;;;;4.05;58.49;100305.94;5014065;28;45350;-72
2022/03/01 07:28:08;;;;;;;;;34.33;32.00;;;;;4.10;58.53;100316.41;5034618;28;45499;-71
2022/03/01 07:30:34;;;;;;;;;43.33;33.33;;;;;4.15;58.58;100317.31;5024903;28;45516;-71
2022/03/01 07:33:01;;;;;;;;;38.00;35.67;;;;;4.19;58.45;100321.66;5035774;28;45893;-71
2022/03/01 07:35:28;;;;;;;;;34.67;29.00;;;;;4.21;58.50;100326.00;5050780;28;45409;-71
2022/03/01 07:37:54;;;;;;;;;43.67;35.33;;;;;4.23;58.49;100320.81;5016995;28;45386;-71
2022/03/01 07:40:21;;;;;;;;;30.00;29.33;;;;;4.27;58.33;100321.69;5030700;28;45497;-71
2022/03/01 07:42:48;;;;;;;;;44.00;35.33;;;;;4.31;58.11;100324.34;5033742;28;45455;-71
2022/03/01 07:45:13;;;;;;;;;32.33;31.67;;;;;4.34;58.35;100326.97;5032558;28;45500;-72
2022/03/01 07:47:39;;;;;;;;;38.33;33.00;;;;;4.40;58.16;100333.94;5034096;28;45540;-72
2022/03/01 07:50:07;;;;;;;;;39.67;34.33;;;;;4.46;58.29;100331.34;5012790;28;45297;-70
2022/03/01 07:52:33;;;;;;;;;37.33;34.33;;;;;4.52;57.98;100326.16;5016669;28;46763;-71
2022/03/01 07:54:58;;;;;;;;;41.00;36.33;;;;;4.57;57.68;100330.53;5032975;28;45459;-70
2022/03/01 07:57:23;;;;;;;;;37.33;34.00;;;;;4.65;57.44;100335.78;5034120;28;45548;-70
2022/03/01 07:59:49;;;;;;;;;35.67;35.33;;;;;4.71;57.58;100334.91;5014588;28;45622;-70
2022/03/01 08:02:14;;;;;;;;;41.67;36.33;;;;;4.77;57.17;100334.94;5033691;28;46403;-71
2022/03/01 08:04:41;;;;;;;;;36.67;32.33;;;;;4.82;57.19;100339.31;5033599;28;45459;-70
2022/03/01 08:07:09;;;;;;;;;36.33;34.33;;;;;4.88;56.98;100343.66;5017310;28;45519;-70
2022/03/01 08:09:36;;;;;;;;;37.00;32.00;;;;;4.94;56.86;100346.31;5034906;28;45345;-71
2022/03/01 08:12:02;;;;;;;;;41.33;34.33;;;;;5.00;56.66;100340.22;5034200;28;46281;-71
2022/03/01 08:14:30;;;;;;;;;47.67;39.00;;;;;5.08;56.33;100346.31;5033684;28;45314;-71
2022/03/01 08:16:56;;;;;;;;;37.00;34.00;;;;;5.13;56.24;100353.31;5016461;28;45489;-71
2022/03/01 08:19:24;;;;;;;;;40.67;35.00;;;;;5.17;56.45;100342.00;5009415;28;45509;-71
2022/03/01 08:21:50;;;;;;;;;40.33;34.67;;;;;5.21;56.23;100354.19;5033454;28;46006;-70
2022/03/01 08:24:17;;;;;;;;;41.00;36.67;;;;;5.29;56.16;100348.97;5008777;28;45481;-71
2022/03/01 08:26:42;;;;;;;;;39.33;31.00;;;;;5.35;55.92;100346.38;5034244;28;45574;-71
2022/03/01 08:29:08;;;;;;;;;41.33;36.33;;;;;5.41;56.02;100348.09;5016115;28;45515;-71
2022/03/01 08:31:35;;;;;;;;;41.00;36.33;;;;;5.46;55.86;100351.59;5033628;28;45884;-71
2022/03/01 08:34:00;;;;;;;;;47.67;40.67;;;;;5.51;55.67;100347.25;5010536;28;45574;-71
2022/03/01 08:36:26;;;;;;;;;38.67;32.33;;;;;5.58;55.17;100351.59;5031893;28;45386;-71
2022/03/01 08:38:52;;;;;;;;;33.00;30.00;;;;;5.64;55.00;100346.38;5029537;28;45498;-71
2022/03/01 08:41:17;;;;;;;;;35.67;33.33;;;;;5.69;54.80;100342.00;5015636;28;47800;-71
2022/03/01 08:43:43;;;;;;;;;38.67;30.67;;;;;5.74;54.95;100332.38;5029944;28;45521;-72
2022/03/01 08:46:13;;;;;;;;;43.00;39.00;;;;;5.82;54.56;100335.88;5015911;28;45412;-71
2022/03/01 08:48:40;;;;;;;;;36.00;32.00;;;;;5.90;54.48;100342.00;5033746;28;45441;-72
2022/03/01 08:51:05;;;;;;;;;33.00;30.00;;;;;5.97;53.90;100337.63;5015410;28;45597;-71
2022/03/01 08:53:34;;;;;;;;;31.33;26.33;;;;;6.04;53.67;100341.09;5031661;28;45477;-72
2022/03/01 08:56:02;;;;;;;;;32.67;27.33;;;;;6.10;53.58;100339.34;5012548;28;45362;-72
2022/03/01 08:58:29;;;;;;;;;30.33;29.67;;;;;6.17;53.35;100337.59;5028151;28;45510;-72
2022/03/01 09:00:54;;;;;;;;;33.67;31.67;;;;;6.25;53.12;100334.06;5016061;28;48056;-72
2022/03/01 09:03:20;;;;;;;;;36.67;32.00;;;;;6.32;53.08;100339.28;5033509;28;45354;-71
2022/03/01 09:05:45;;;;;;;;;31.33;29.67;;;;;6.38;53.21;100349.72;5027672;28;45600;-71
2022/03/01 09:08:13;;;;;;;;;32.67;28.00;;;;;6.45;52.55;100340.97;5015293;28;45612;-72
2022/03/01 09:10:40;;;;;;;;;31.67;29.33;;;;;6.52;52.66;100346.19;5021663;28;45508;-71
2022/03/01 09:13:05;;;;;;;;;35.33;26.33;;;;;6.57;51.92;100339.16;5034188;28;45441;-72
2022/03/01 09:15:32;;;;;;;;;33.00;27.00;;;;;6.61;51.55;100340.91;5028261;28;45441;-72
2022/03/01 09:18:02;;;;;;;;;28.33;25.00;;;;;6.69;51.82;100338.25;5015440;28;45631;-71
2022/03/01 09:20:28;;;;;;;;;23.33;22.33;;;;;6.76;51.65;100329.47;5029839;28;46846;-71
2022/03/01 09:22:54;;;;;;;;;32.67;27.67;;;;;6.85;51.49;100336.44;5032983;28;45438;-71
2022/03/01 09:25:20;;;;;;;;;31.67;22.00;;;;;6.91;50.91;100332.00;5007006;28;45502;-73
2022/03/01 09:27:45;;;;;;;;;30.00;27.67;;;;;6.98;50.86;100335.47;5033639;28;45322;-71
2022/03/01 09:30:11;;;;;;;;;25.00;21.00;;;;;7.03;50.81;100324.97;5031471;28;45477;-71
2022/03/01 09:32:37;;;;;;;;;32.00;26.00;;;;;7.07;50.62;100322.28;5015218;28;45452;-71
2022/03/01 09:35:03;;;;;;;;;27.00;24.33;;;;;7.15;50.62;100320.50;5033662;28;45432;-71
2022/03/01 09:37:31;;;;;;;;;27.00;25.33;;;;;7.26;50.39;100323.91;5033245;28;45482;-71
2022/03/01 09:39:58;;;;;;;;;27.67;24.33;;;;;7.40;50.06;100326.41;4993605;28;46670;-71
2022/03/01 09:42:27;;;;;;;;;28.00;25.67;;;;;7.53;49.92;100321.97;5015460;28;45410;-71
2022/03/01 09:44:54;;;;;;;;;26.00;25.00;;;;;7.65;49.38;100327.97;5029993;28;45451;-72
2022/03/01 09:47:21;;;;;;;;;27.33;22.00;;;;;7.73;49.25;100320.00;5032841;28;45308;-71
2022/03/01 09:49:46;;;;;;;;;24.67;22.00;;;;;7.78;48.49;100320.84;5010348;28;45592;-72
2022/03/01 09:52:15;;;;;;;;;23.33;20.00;;;;;7.86;48.44;100318.16;5033404;28;45464;-72
2022/03/01 09:54:41;;;;;;;;;26.33;25.00;;;;;7.93;47.97;100315.44;5033945;28;45372;-72
2022/03/01 09:57:06;;;;;;;;;27.00;23.33;;;;;8.00;48.21;100319.75;5033475;28;45393;-72
2022/03/01 09:59:32;;;;;;;;;27.33;23.00;;;;;8.06;47.88;100316.16;5015428;28;46265;-72
2022/03/01 10:01:57;;;;;;;;;30.00;28.00;;;;;8.14;47.86;100313.47;5015001;28;45282;-71
2022/03/01 10:04:24;;;;;;;;;25.67;23.33;;;;;8.22;48.01;100309.84;5033750;28;45393;-71
2022/03/01 10:06:51;;;;;;;;;35.33;28.67;;;;;8.27;48.37;100313.31;5033560;28;45370;-72
2022/03/01 10:09:22;;;;;;;;;22.33;19.33;;;;;8.32;47.64;100314.16;5033749;28;45418;-72
2022/03/01 10:11:48;;;;;;;;;30.67;30.67;;;;;8.36;47.45;100310.63;5033546;28;45417;-72
2022/03/01 10:14:15;;;;;;;;;28.67;27.00;;;;;8.40;47.64;100311.44;5033581;28;45225;-71
2022/03/01 10:16:42;;;;;;;;;28.00;25.00;;;;;8.46;47.61;100307.88;5015481;28;45407;-72
2022/03/01 10:19:17;;;;;;;;;29.00;26.00;;;;;8.50;47.37;100309.56;5033222;28;46522;-72
2022/03/01 10:21:46;;;;;;;;;30.00;25.67;;;;;8.54;47.34;100313.91;5024992;28;45374;-72
2022/03/01 10:24:13;;;;;;;;;30.67;28.00;;;;;8.58;47.30;100311.19;5053319;28;45442;-72
2022/03/01 10:26:39;;;;;;;;;33.67;27.00;;;;;8.62;47.66;100310.28;5053189;28;45318;-72
2022/03/01 10:29:06;;;;;;;;;34.67;29.00;;;;;8.65;47.01;100306.75;5041878;28;46370;-72
2022/03/01 10:31:34;;;;;;;;;30.67;27.67;;;;;8.68;47.10;100301.47;5025046;28;45371;-72
2022/03/01 10:34:05;;;;;;;;;29.00;26.33;;;;;8.68;46.76;100299.69;5038235;28;45494;-72
2022/03/01 10:36:31;;;;;;;;;34.00;30.67;;;;;8.72;46.36;100296.13;5038370;28;45503;-72
2022/03/01 10:39:03;;;;;;;;;26.00;26.00;;;;;8.80;46.62;100290.75;5024121;28;46483;-72
2022/03/01 10:41:30;;;;;;;;;30.33;28.33;;;;;8.88;46.67;100278.34;5044440;28;45323;-71
2022/03/01 10:43:59;;;;;;;;;29.33;28.67;;;;;8.94;46.12;100280.03;5054857;28;45480;-73
2022/03/01 10:46:28;;;;;;;;;30.00;26.00;;;;;9.01;46.07;100277.31;5026718;28;45585;-72
2022/03/01 10:49:08;;;;;;;;;31.67;25.33;;;;;9.11;45.88;100272.75;5055331;28;46197;-72
2022/03/01 10:52:08;;;;;;;;;33.33;27.33;;;;;9.20;45.57;100277.88;5037937;28;45402;-72
2022/03/01 10:54:35;;;;;;;;;29.00;28.33;;;;;9.29;45.25;100272.47;5016422;28;45407;-72
2022/03/01 10:57:06;;;;;;;;;27.33;23.67;;;;;9.35;45.71;100268.88;5038024;28;45587;-72
2022/03/01 10:59:34;;;;;;;;;30.67;27.33;;;;;9.39;45.06;100266.13;5046253;28;46182;-72
2022/03/01 11:02:02;;;;;;;;;23.00;19.67;;;;;9.44;44.82;100266.94;5049082;28;45381;-72
2022/03/01 11:04:28;;;;;;;;;26.67;18.00;;;;;9.50;44.05;100260.72;5018064;28;45375;-72
2022/03/01 11:06:59;;;;;;;;;24.00;23.00;;;;;9.56;43.59;100249.19;5031703;28;45290;-72
2022/03/01 11:09:28;;;;;;;;;23.67;23.00;;;;;9.59;43.32;100255.28;5027744;28;46863;-72
2022/03/01 11:11:56;;;;;;;;;24.33;23.33;;;;;9.62;43.58;100254.34;5056438;28;45499;-71